Time;durP1;ratioP1;P1;durP2;ratioP2;P2;SDS_P1;SDS_P2;PMS_P1;PMS_P2;Temp;Humidity;BMP_temperature;BMP_pressure;BME280_temperature;BME280_humidity;BME280_pressure;Samples;Min_cycle;Max_cycle;Signal;HPM_P1;HPM_P2
2023/04/19 00:00:00;;;;;;;1.50;1.10;;;;;;;9.91;85.71;94218.53;5137156;27;20192;-71
2023/04/19 00:02:27;;;;;;;2.25;1.27;;;;;;;9.84;86.12;94222.91;5139231;27;20201;-71
2023/04/19 00:04:55;;;;;;;1.42;1.00;;;;;;;9.94;86.16;94207.06;5143677;27;20265;-72
2023/04/19 00:07:22;;;;;;;1.75;1.30;;;;;;;10.11;86.16;94218.84;5143471;27;20227;-72
2023/04/19 00:09:49;;;;;;;1.85;1.00;;;;;;;10.14;86.19;94218.13;5131346;27;20621;-72
2023/04/19 00:12:16;;;;;;;2.25;1.20;;;;;;;10.18;86.41;94210.94;5130277;27;20502;-72
2023/04/19 00:14:42;;;;;;;2.22;1.20;;;;;;;10.13;86.65;94208.44;5144163;27;20739;-71
2023/04/19 00:17:10;;;;;;;3.42;1.30;;;;;;;10.20;85.49;94201.41;5130315;27;20211;-72
2023/04/19 00:19:37;;;;;;;2.15;1.30;;;;;;;10.25;85.23;94214.69;5137433;27;20200;-72
2023/04/19 00:22:09;;;;;;;4.45;1.08;;;;;;;10.25;85.25;94203.88;5137274;27;20292;-73
2023/04/19 00:24:36;;;;;;;2.55;1.30;;;;;;;10.15;87.25;94203.47;5130675;27;20204;-72
2023/04/19 00:27:03;;;;;;;2.10;1.45;;;;;;;9.98;87.10;94204.44;5136778;27;20209;-72
2023/04/19 00:29:29;;;;;;;2.30;1.48;;;;;;;10.03;87.04;94195.34;5136708;27;20226;-71
2023/04/19 00:31:56;;;;;;;4.53;2.47;;;;;;;9.95;86.87;94195.09;5134453;27;20933;-71
2023/04/19 00:34:23;;;;;;;1.48;1.20;;;;;;;10.05;86.04;94193.09;5128894;27;20288;-72
2023/04/19 00:36:50;;;;;;;3.35;1.63;;;;;;;10.15;86.05;94198.06;5143102;27;20230;-72
2023/04/19 00:39:18;;;;;;;1.50;1.00;;;;;;;10.33;85.81;94191.38;5137995;27;20281;-72
2023/04/19 00:41:44;;;;;;;0.93;0.88;;;;;;;10.15;86.22;94187.25;5135757;27;20250;-72
2023/04/19 00:44:11;;;;;;;2.92;1.60;;;;;;;10.14;85.95;94196.50;5139767;27;20227;-71
2023/04/19 00:46:39;;;;;;;3.47;1.35;;;;;;;10.13;85.96;94195.69;5142213;27;20203;-72
2023/04/19 00:49:06;;;;;;;1.35;0.93;;;;;;;10.11;86.04;94197.19;5137752;27;20614;-72
2023/04/19 00:51:33;;;;;;;2.28;1.00;;;;;;;10.09;86.48;94183.19;5135163;27;20212;-72
2023/04/19 00:54:00;;;;;;;1.70;0.93;;;;;;;10.10;86.03;94195.59;5139141;27;20217;-73
2023/04/19 00:56:29;;;;;;;1.25;0.80;;;;;;;10.11;86.20;94191.78;5142124;27;20228;-72
2023/04/19 00:58:56;;;;;;;1.52;1.02;;;;;;;9.97;86.11;94198.28;5138993;27;20196;-72
2023/04/19 01:01:23;;;;;;;1.42;1.00;;;;;;;9.90;86.73;94191.81;5135462;27;20540;-71
2023/04/19 01:03:50;;;;;;;1.88;0.90;;;;;;;9.86;86.67;94191.69;5139737;27;20559;-73
2023/04/19 01:06:17;;;;;;;1.35;1.02;;;;;;;9.84;86.74;94188.50;5142387;27;20205;-73
2023/04/19 01:08:44;;;;;;;1.70;0.95;;;;;;;9.82;87.35;94185.38;5140688;27;20215;-72
2023/04/19 01:11:11;;;;;;;2.15;0.90;;;;;;;9.65;87.78;94179.34;5136221;27;20247;-71
2023/04/19 01:13:39;;;;;;;2.22;1.10;;;;;;;9.67;87.94;94182.50;5138702;27;20189;-71
2023/04/19 01:16:07;;;;;;;1.45;0.75;;;;;;;9.57;87.63;94168.25;5143516;27;20247;-72
2023/04/19 01:18:36;;;;;;;2.72;1.30;;;;;;;9.56;88.27;94176.72;5141246;27;20199;-71
2023/04/19 01:21:03;;;;;;;2.40;1.25;;;;;;;9.57;88.38;94179.06;5136523;27;20207;-71
2023/04/19 01:23:31;;;;;;;2.53;1.17;;;;;;;9.70;88.22;94177.22;5137568;27;20223;-71
2023/04/19 01:26:00;;;;;;;1.80;1.10;;;;;;;9.73;87.36;94179.25;5143089;27;20592;-71
2023/04/19 01:28:26;;;;;;;1.63;1.08;;;;;;;9.65;87.79;94184.75;5142973;27;20580;-72
2023/04/19 01:30:53;;;;;;;1.65;1.13;;;;;;;9.53;87.47;94182.78;5141413;27;20565;-71
2023/04/19 01:33:20;;;;;;;1.48;0.80;;;;;;;9.45;87.47;94180.91;5135580;27;20251;-72
2023/04/19 01:35:47;;;;;;;0.98;0.90;;;;;;;9.36;88.00;94180.22;5135626;27;20231;-72
2023/04/19 01:38:14;;;;;;;0.93;0.75;;;;;;;9.27;88.46;94186.50;5136038;27;20242;-71
2023/04/19 01:40:43;;;;;;;1.15;1.02;;;;;;;9.19;89.27;94171.13;5142476;27;20201;-72
2023/04/19 01:43:13;;;;;;;2.08;1.20;;;;;;;9.28;89.07;94181.88;5143186;27;20256;-71
2023/04/19 01:45:40;;;;;;;4.85;1.52;;;;;;;9.24;89.50;94179.03;5128658;28;20201;-71
2023/04/19 01:48:07;;;;;;;2.03;1.30;;;;;;;9.12;90.04;94181.66;5129803;27;20724;-71
2023/04/19 01:50:34;;;;;;;3.97;1.23;;;;;;;9.16;89.84;94179.88;5140655;27;20240;-71
2023/04/19 01:53:01;;;;;;;4.57;0.95;;;;;;;9.19;90.81;94175.72;5142605;27;20220;-71
2023/04/19 01:55:27;;;;;;;1.70;1.08;;;;;;;9.15;90.70;94172.91;5137155;27;20255;-71
2023/04/19 01:57:56;;;;;;;2.20;1.50;;;;;;;9.22;90.52;94173.16;5133958;27;20197;-72
2023/04/19 02:00:23;;;;;;;1.10;0.98;;;;;;;9.14;90.64;94171.34;5137833;27;20192;-71
2023/04/19 02:02:50;;;;;;;1.27;0.85;;;;;;;8.99;91.62;94169.22;5147750;27;20200;-72
2023/04/19 02:05:17;;;;;;;1.02;0.82;;;;;;;8.93;91.91;94181.31;5137512;27;20560;-72
2023/04/19 02:07:43;;;;;;;1.77;1.20;;;;;;;8.88;92.43;94168.03;5134750;27;20305;-72
2023/04/19 02:10:11;;;;;;;1.67;1.20;;;;;;;8.90;92.84;94176.56;5139832;27;20193;-72
2023/04/19 02:12:38;;;;;;;1.35;0.80;;;;;;;8.84;92.95;94167.09;5141712;27;21756;-72
2023/04/19 02:15:07;;;;;;;2.67;1.23;;;;;;;8.88;93.40;94173.44;5138290;27;20207;-71
2023/04/19 02:17:34;;;;;;;2.38;1.25;;;;;;;8.91;93.23;94178.16;5132244;27;20647;-71
2023/04/19 02:20:03;;;;;;;1.80;1.45;;;;;;;8.86;93.72;94176.44;5132654;27;20212;-72
2023/04/19 02:22:30;;;;;;;2.50;1.90;;;;;;;8.92;93.54;94174.34;5146763;27;20205;-71
2023/04/19 02:24:56;;;;;;;1.85;1.23;;;;;;;8.92;93.72;94174.34;5132918;27;20216;-72
2023/04/19 02:27:23;;;;;;;1.85;1.65;;;;;;;8.88;93.13;94168.03;5132694;27;20215;-71
2023/04/19 02:29:50;;;;;;;2.30;1.35;;;;;;;8.83;93.58;94171.69;5137451;27;20510;-71
2023/04/19 02:32:18;;;;;;;2.10;1.35;;;;;;;8.75;94.14;94163.63;5146417;27;20197;-71
2023/04/19 02:34:45;;;;;;;3.22;1.20;;;;;;;8.74;93.81;94156.66;5144188;27;20200;-71
2023/04/19 02:37:12;;;;;;;2.58;1.48;;;;;;;8.76;94.00;94160.59;5139267;27;20220;-72
2023/04/19 02:39:40;;;;;;;1.73;1.40;;;;;;;8.79;94.12;94164.56;5141550;27;20672;-71
2023/04/19 02:42:07;;;;;;;3.08;1.67;;;;;;;8.80;94.32;94166.16;5132407;27;20232;-72
2023/04/19 02:44:34;;;;;;;1.60;1.42;;;;;;;8.78;93.70;94163.78;5144327;27;20569;-72
2023/04/19 02:47:00;;;;;;;2.17;1.80;;;;;;;8.76;93.98;94160.59;5133930;27;20290;-72
2023/04/19 02:49:33;;;;;;;2.75;1.40;;;;;;;8.78;94.13;94168.38;5132083;27;20627;-72
2023/04/19 02:52:00;;;;;;;1.98;1.65;;;;;;;8.77;93.79;94161.41;5146291;27;20238;-72
2023/04/19 02:54:26;;;;;;;1.55;1.45;;;;;;;8.83;93.68;94169.00;5132099;27;20220;-72
2023/04/19 02:56:53;;;;;;;2.85;1.55;;;;;;;8.86;93.06;94165.66;5145846;27;20732;-72
2023/04/19 02:59:20;;;;;;;2.35;1.48;;;;;;;8.77;92.82;94166.78;5145155;27;20204;-71
2023/04/19 03:01:47;;;;;;;2.45;1.50;;;;;;;8.81;92.81;94159.63;5138629;27;20310;-72
2023/04/19 03:04:14;;;;;;;3.08;1.92;;;;;;;8.85;92.75;94169.47;5138612;27;20679;-71
2023/04/19 03:06:43;;;;;;;3.50;1.77;;;;;;;8.76;92.82;94173.31;5145888;27;20280;-72
2023/04/19 03:09:10;;;;;;;2.25;1.30;;;;;;;8.69;93.37;94175.75;5145765;27;20203;-72
2023/04/19 03:11:37;;;;;;;3.28;2.10;;;;;;;8.67;93.65;94167.19;5138651;27;20744;-71
2023/04/19 03:14:04;;;;;;;3.67;2.00;;;;;;;8.58;93.45;94169.16;5138400;27;20201;-72
2023/04/19 03:16:31;;;;;;;3.63;1.95;;;;;;;8.67;93.73;94175.28;5144226;27;20313;-71
2023/04/19 03:18:58;;;;;;;2.80;1.95;;;;;;;8.64;93.35;94167.81;5145742;27;20221;-71
2023/04/19 03:21:26;;;;;;;4.40;1.60;;;;;;;8.68;93.38;94158.75;5139614;27;20202;-71
2023/04/19 03:23:54;;;;;;;6.50;1.95;;;;;;;8.59;93.50;94165.34;5136165;27;20205;-71
2023/04/19 03:26:21;;;;;;;3.35;2.13;;;;;;;8.53;93.61;94162.81;5131905;27;20212;-71
2023/04/19 03:28:48;;;;;;;3.22;1.98;;;;;;;8.57;93.72;94162.16;5145156;27;20204;-71
2023/04/19 03:31:15;;;;;;;2.85;1.90;;;;;;;8.57;93.55;94167.56;5141189;27;20551;-71
2023/04/19 03:33:42;;;;;;;2.90;1.77;;;;;;;8.53;93.25;94157.41;5135525;27;20225;-71
2023/04/19 03:36:09;;;;;;;2.50;1.95;;;;;;;8.53;93.43;94167.41;5140667;27;20231;-71
2023/04/19 03:38:37;;;;;;;7.80;4.25;;;;;;;8.57;93.58;94167.56;5138018;27;20257;-72
2023/04/19 03:41:05;;;;;;;3.80;2.40;;;;;;;8.51;94.08;94164.25;5142306;27;20228;-72
2023/04/19 03:43:32;;;;;;;3.28;2.13;;;;;;;8.45;93.75;94171.75;5145112;27;20209;-72
2023/04/19 03:45:59;;;;;;;3.20;1.88;;;;;;;8.61;93.48;94163.09;5141662;27;20205;-70
2023/04/19 03:48:26;;;;;;;2.45;1.63;;;;;;;8.54;93.38;94159.00;5137613;27;20207;-72
2023/04/19 03:50:53;;;;;;;6.45;2.33;;;;;;;8.48;93.96;94160.28;5140953;27;20299;-72
2023/04/19 03:53:20;;;;;;;2.88;2.00;;;;;;;8.43;93.98;94160.50;5144681;27;20301;-72
2023/04/19 03:55:47;;;;;;;2.63;1.73;;;;;;;8.37;94.14;94159.06;5141970;27;20211;-72
2023/04/19 03:58:15;;;;;;;3.22;2.15;;;;;;;8.34;94.32;94153.53;5147529;27;20254;-71
2023/04/19 04:00:42;;;;;;;3.20;2.40;;;;;;;8.36;94.28;94157.50;5142231;27;20281;-71
2023/04/19 04:03:08;;;;;;;3.60;2.17;;;;;;;8.32;94.44;94161.19;5133051;27;20209;-71
2023/04/19 04:05:36;;;;;;;3.80;1.70;;;;;;;8.34;94.23;94159.72;5142436;27;20655;-72
2023/04/19 04:08:02;;;;;;;1.35;1.08;;;;;;;8.24;94.19;94145.78;5136826;27;20195;-72
2023/04/19 04:10:29;;;;;;;2.13;1.73;;;;;;;8.41;93.93;94160.03;5136216;27;20249;-72
2023/04/19 04:12:56;;;;;;;3.92;2.08;;;;;;;8.53;93.90;94157.41;5135825;27;20206;-72
2023/04/19 04:15:24;;;;;;;1.65;1.48;;;;;;;8.53;93.32;94154.72;5138867;27;20197;-72
2023/04/19 04:17:51;;;;;;;2.15;1.35;;;;;;;8.67;92.44;94161.78;5136090;27;20227;-72
2023/04/19 04:20:18;;;;;;;2.83;1.80;;;;;;;8.75;92.34;94163.63;5138194;27;20230;-71
2023/04/19 04:22:46;;;;;;;2.58;1.83;;;;;;;8.78;91.90;94173.78;5142130;27;20268;-71
2023/04/19 04:25:14;;;;;;;4.18;1.60;;;;;;;8.76;92.00;94170.63;5131210;27;20250;-75
2023/04/19 04:27:41;;;;;;;2.75;2.00;;;;;;;8.76;92.07;94170.63;5143236;27;20617;-72
2023/04/19 04:30:09;;;;;;;2.33;1.77;;;;;;;8.78;92.07;94171.09;5139133;27;20699;-72
2023/04/19 04:32:39;;;;;;;2.72;1.92;;;;;;;8.92;91.79;94168.94;5143068;27;20682;-72
2023/04/19 04:35:08;;;;;;;2.25;1.73;;;;;;;8.77;91.72;94174.91;5130789;27;20205;-72
2023/04/19 04:37:35;;;;;;;1.17;1.08;;;;;;;8.65;91.83;94177.50;5141245;27;20328;-72
2023/04/19 04:40:04;;;;;;;2.60;1.80;;;;;;;8.64;92.20;94179.41;5142418;27;20846;-71
2023/04/19 04:42:31;;;;;;;2.95;1.92;;;;;;;8.61;92.26;94176.59;5138189;27;20196;-72
2023/04/19 04:45:00;;;;;;;4.03;1.92;;;;;;;8.63;92.40;94188.63;5136464;27;20240;-71
2023/04/19 04:47:31;;;;;;;2.22;1.55;;;;;;;8.58;92.35;94182.66;5140550;27;20197;-72
2023/04/19 04:49:59;;;;;;;7.85;2.38;;;;;;;8.64;92.21;94178.63;5129226;27;20205;-72
2023/04/19 04:52:29;;;;;;;3.45;2.00;;;;;;;8.57;91.82;94175.66;5129629;27;20204;-71
2023/04/19 04:54:56;;;;;;;3.38;2.38;;;;;;;8.61;92.03;94182.00;5143652;27;20723;-72
2023/04/19 04:57:23;;;;;;;7.20;2.15;;;;;;;8.67;91.70;94177.97;5140533;27;20228;-72
2023/04/19 04:59:49;;;;;;;3.50;2.03;;;;;;;8.71;91.64;94179.72;5136962;27;20241;-71
2023/04/19 05:02:17;;;;;;;1.75;1.45;;;;;;;8.68;91.49;94174.16;5138894;27;20258;-71
2023/04/19 05:04:44;;;;;;;2.38;1.60;;;;;;;8.70;91.21;94177.34;5143583;27;20232;-72
2023/04/19 05:07:12;;;;;;;3.25;2.08;;;;;;;8.80;91.69;94187.75;5141190;27;20204;-71
2023/04/19 05:09:39;;;;;;;2.90;1.73;;;;;;;8.87;90.93;94185.34;5135819;27;20794;-71
2023/04/19 05:12:06;;;;;;;2.50;1.65;;;;;;;8.76;90.86;94178.72;5138022;27;20585;-71
2023/04/19 05:14:33;;;;;;;1.73;1.38;;;;;;;8.71;91.12;94184.31;5143731;27;20241;-72
2023/04/19 05:17:00;;;;;;;1.75;1.58;;;;;;;8.81;91.13;94189.34;5141498;27;20235;-72
2023/04/19 05:19:27;;;;;;;1.60;1.50;;;;;;;8.73;90.98;94187.50;5136402;27;20196;-72
2023/04/19 05:21:53;;;;;;;4.80;2.33;;;;;;;8.86;91.34;94198.06;5137249;27;20763;-71
2023/04/19 05:24:22;;;;;;;1.77;1.38;;;;;;;8.97;90.30;94197.66;5143244;27;20675;-71
2023/04/19 05:26:48;;;;;;;0.95;0.90;;;;;;;8.89;90.79;94196.59;5142583;27;20257;-72
2023/04/19 05:29:15;;;;;;;3.08;1.73;;;;;;;8.92;90.98;94190.53;5135124;27;20207;-71
2023/04/19 05:31:42;;;;;;;3.90;2.28;;;;;;;8.95;90.41;94179.09;5142905;27;20196;-72
2023/04/19 05:34:09;;;;;;;1.73;1.38;;;;;;;9.11;90.09;94192.81;5135911;27;20201;-72
2023/04/19 05:36:36;;;;;;;3.05;1.88;;;;;;;9.19;89.59;94190.03;5137108;27;20224;-72
2023/04/19 05:39:02;;;;;;;1.58;1.25;;;;;;;9.11;89.30;94182.78;5143552;27;20262;-72
2023/04/19 05:41:31;;;;;;;2.80;1.88;;;;;;;8.97;89.82;94193.06;5141682;27;20204;-72
2023/04/19 05:43:57;;;;;;;4.10;2.25;;;;;;;9.15;90.04;94193.75;5135402;27;20204;-71
2023/04/19 05:46:24;;;;;;;5.30;2.30;;;;;;;9.45;88.63;94186.34;5135961;27;20197;-72
2023/04/19 05:48:51;;;;;;;3.45;1.95;;;;;;;9.72;88.00;94185.78;5129155;28;20311;-71
2023/04/19 05:51:18;;;;;;;3.35;2.28;;;;;;;10.13;86.19;94192.19;5143038;27;20204;-72
2023/04/19 05:53:45;;;;;;;2.35;1.48;;;;;;;10.16;85.42;94183.41;5139421;27;20220;-72
2023/04/19 05:56:12;;;;;;;8.48;2.75;;;;;;;10.18;84.99;94189.28;5139542;27;20295;-72
2023/04/19 05:58:40;;;;;;;5.47;2.63;;;;;;;9.86;86.15;94191.69;5135462;27;20231;-71
2023/04/19 06:01:07;;;;;;;4.20;3.05;;;;;;;10.20;85.61;94195.19;5146964;27;20365;-73
2023/04/19 06:03:33;;;;;;;3.25;2.25;;;;;;;10.13;85.13;94194.91;5132763;27;20209;-72
2023/04/19 06:06:00;;;;;;;5.72;2.35;;;;;;;9.84;86.62;94198.56;5133580;27;20201;-72
2023/04/19 06:08:27;;;;;;;2.40;1.88;;;;;;;9.75;86.73;94197.84;5144774;27;20254;-73
2023/04/19 06:10:55;;;;;;;3.85;2.45;;;;;;;9.96;86.26;94196.69;5146980;27;20239;-72
2023/04/19 06:13:22;;;;;;;2.78;1.83;;;;;;;10.11;85.23;94202.59;5141392;27;20199;-72
2023/04/19 06:15:50;;;;;;;1.70;1.30;;;;;;;9.91;85.33;94196.91;5154173;27;20289;-73
2023/04/19 06:18:17;;;;;;;2.90;1.98;;;;;;;10.10;85.59;94195.59;5143806;27;20232;-72
2023/04/19 06:20:44;;;;;;;2.70;1.90;;;;;;;10.21;84.76;94196.78;5132845;27;20209;-72
2023/04/19 06:23:11;;;;;;;3.95;2.28;;;;;;;10.31;85.04;94196.34;5142798;27;20200;-73
2023/04/19 06:25:38;;;;;;;3.20;2.25;;;;;;;9.99;85.23;94206.81;5139508;27;20227;-73
2023/04/19 06:28:05;;;;;;;3.67;2.38;;;;;;;10.20;84.88;94197.91;5143499;27;20208;-73
2023/04/19 06:30:32;;;;;;;3.78;2.10;;;;;;;10.17;84.46;94203.94;5140213;27;20201;-73
2023/04/19 06:33:00;;;;;;;2.20;1.70;;;;;;;10.19;84.36;94202.53;5143170;27;20229;-72
2023/04/19 06:35:27;;;;;;;3.25;2.00;;;;;;;10.19;83.95;94193.63;5146490;27;20205;-71
2023/04/19 06:37:54;;;;;;;5.15;2.88;;;;;;;10.46;82.40;94195.69;5132568;27;20244;-73
2023/04/19 06:40:21;;;;;;;4.68;2.38;;;;;;;10.55;82.61;94207.19;5134887;27;20196;-72
2023/04/19 06:42:48;;;;;;;2.70;2.08;;;;;;;10.89;81.56;94205.19;5133968;27;20612;-73
2023/04/19 06:45:15;;;;;;;3.45;1.90;;;;;;;10.86;81.00;94203.94;5136892;27;20539;-72
2023/04/19 06:47:42;;;;;;;3.53;1.80;;;;;;;11.15;80.21;94205.59;5143087;27;20201;-71
2023/04/19 06:50:11;;;;;;;2.45;1.60;;;;;;;11.48;78.83;94201.94;5147189;27;20193;-73
2023/04/19 06:52:38;;;;;;;6.10;1.85;;;;;;;11.76;77.35;94194.59;5145066;27;20216;-73
2023/04/19 06:55:06;;;;;;;3.08;1.90;;;;;;;11.85;77.35;94205.34;5135017;27;20220;-72
2023/04/19 06:57:33;;;;;;;6.00;2.05;;;;;;;11.74;77.55;94208.50;5133314;27;20235;-73
2023/04/19 07:00:00;;;;;;;3.70;1.88;;;;;;;12.38;75.28;94201.31;5147168;27;20219;-73
2023/04/19 07:02:27;;;;;;;3.75;2.10;;;;;;;12.50;74.36;94201.25;5145106;27;20227;-73
2023/04/19 07:04:53;;;;;;;3.20;2.30;;;;;;;12.72;73.80;94206.06;5138960;27;20729;-73
2023/04/19 07:07:21;;;;;;;2.33;1.67;;;;;;;13.09;72.18;94200.34;5140460;27;20200;-72
2023/04/19 07:09:48;;;;;;;4.15;2.25;;;;;;;13.27;71.80;94201.53;5146471;27;20212;-72
2023/04/19 07:12:15;;;;;;;1.52;1.33;;;;;;;13.34;71.87;94201.72;5146064;27;20296;-72
2023/04/19 07:14:42;;;;;;;2.22;1.92;;;;;;;12.99;71.64;94206.31;5139791;27;20211;-72
2023/04/19 07:17:09;;;;;;;2.58;1.77;;;;;;;12.65;73.07;94199.69;5139973;27;20229;-72
2023/04/19 07:19:35;;;;;;;3.83;2.08;;;;;;;12.40;72.75;94207.19;5146033;27;20655;-72
2023/04/19 07:22:04;;;;;;;2.08;1.60;;;;;;;12.13;73.62;94202.59;5146814;27;20200;-73
2023/04/19 07:24:33;;;;;;;1.85;1.30;;;;;;;11.94;75.26;94209.47;5146483;27;20220;-72
2023/04/19 07:27:00;;;;;;;1.80;1.55;;;;;;;11.82;75.80;94214.94;5146836;27;20196;-71
2023/04/19 07:29:27;;;;;;;3.42;2.90;;;;;;;12.48;75.00;94214.38;5132905;27;20204;-72
2023/04/19 07:31:54;;;;;;;3.05;1.88;;;;;;;12.62;72.50;94203.88;5133494;27;20200;-72
2023/04/19 07:34:21;;;;;;;3.15;1.63;;;;;;;13.19;72.13;94204.47;5145991;27;20224;-72
2023/04/19 07:36:48;;;;;;;2.38;1.60;;;;;;;13.38;70.99;94208.03;5146497;27;20200;-72
2023/04/19 07:39:15;;;;;;;2.83;1.73;;;;;;;12.46;72.56;94211.22;5140117;27;20390;-73
2023/04/19 07:41:43;;;;;;;2.03;1.70;;;;;;;12.60;72.96;94206.16;5138413;27;20243;-72
2023/04/19 07:44:12;;;;;;;4.03;2.90;;;;;;;12.26;73.83;94190.53;5132182;27;20557;-72
2023/04/19 07:46:39;;;;;;;1.83;1.33;;;;;;;12.75;72.97;94205.38;5146084;27;20261;-72
2023/04/19 07:49:06;;;;;;;4.43;1.73;;;;;;;12.85;72.20;94200.56;5141089;27;20202;-73
2023/04/19 07:51:33;;;;;;;1.65;1.20;;;;;;;12.41;72.82;94208.78;5138165;27;20715;-75
2023/04/19 07:53:59;;;;;;;3.92;2.20;;;;;;;12.00;75.03;94215.44;5143603;27;20203;-72
2023/04/19 07:56:26;;;;;;;3.22;2.10;;;;;;;12.63;73.81;94210.88;5132196;27;20228;-72
2023/04/19 07:58:55;;;;;;;3.03;2.00;;;;;;;12.97;73.13;94209.41;5131912;27;20229;-72
2023/04/19 08:01:21;;;;;;;2.00;1.52;;;;;;;12.24;74.34;94209.09;5145577;27;20301;-73
2023/04/19 08:03:48;;;;;;;2.78;1.60;;;;;;;12.56;73.65;94199.84;5132256;27;20212;-73
2023/04/19 08:06:16;;;;;;;4.20;2.10;;;;;;;12.75;73.10;94208.09;5135051;27;20239;-72
2023/04/19 08:08:43;;;;;;;3.42;2.65;;;;;;;13.13;72.77;94203.91;5142748;27;20209;-71
2023/04/19 08:11:10;;;;;;;4.28;2.70;;;;;;;12.50;73.14;94206.69;5131490;27;20239;-72
2023/04/19 08:13:37;;;;;;;5.45;3.35;;;;;;;12.92;72.71;94203.44;5132078;27;20211;-72
2023/04/19 08:16:06;;;;;;;3.47;2.50;;;;;;;12.97;72.25;94208.59;5135188;27;20702;-72
2023/04/19 08:18:34;;;;;;;2.80;2.13;;;;;;;13.06;73.08;94199.13;5140670;27;20716;-72
2023/04/19 08:21:01;;;;;;;3.35;2.13;;;;;;;13.07;72.00;94206.13;5145348;27;20872;-71
2023/04/19 08:23:28;;;;;;;4.38;1.98;;;;;;;12.59;72.85;94204.56;5143553;27;20681;-73
2023/04/19 08:25:54;;;;;;;3.15;1.80;;;;;;;12.36;73.89;94214.47;5138745;27;20232;-72
2023/04/19 08:28:21;;;;;;;1.77;1.45;;;;;;;12.57;72.85;94212.31;5140261;27;20749;-73
2023/04/19 08:30:49;;;;;;;2.08;1.63;;;;;;;12.56;73.87;94199.84;5145458;27;20197;-72
2023/04/19 08:33:17;;;;;;;3.42;2.20;;;;;;;12.53;74.03;94189.69;5143793;27;20204;-73
2023/04/19 08:35:44;;;;;;;2.88;1.90;;;;;;;12.97;72.33;94203.16;5146142;27;20687;-73
2023/04/19 08:38:11;;;;;;;5.18;2.08;;;;;;;13.02;71.55;94195.50;5131047;27;20236;-72
2023/04/19 08:40:46;;;;;;;4.03;2.47;;;;;;;12.96;72.28;94201.59;5136713;27;20204;-73
2023/04/19 08:43:13;;;;;;;6.32;2.30;;;;;;;12.91;72.42;94183.59;5138062;27;20636;-72
2023/04/19 08:45:40;;;;;;;1.65;1.50;;;;;;;12.54;72.39;94193.19;5130799;27;20241;-76
2023/04/19 08:48:10;;;;;;;3.75;2.28;;;;;;;12.77;71.93;94189.50;5145079;27;20204;-74
2023/04/19 08:50:40;;;;;;;2.67;2.03;;;;;;;13.02;71.53;94197.44;5139062;27;20220;-73
2023/04/19 08:53:08;;;;;;;2.53;1.75;;;;;;;13.18;70.59;94192.81;5137803;27;20733;-72
2023/04/19 08:55:35;;;;;;;4.55;2.03;;;;;;;13.09;71.25;94189.47;5142770;27;20201;-73
2023/04/19 08:58:03;;;;;;;1.40;1.23;;;;;;;13.23;69.89;94189.81;5131273;27;20235;-77
2023/04/19 09:00:31;;;;;;;0.70;0.70;;;;;;;12.95;71.36;94183.69;5140245;27;20658;-74
2023/04/19 09:02:58;;;;;;;2.95;1.98;;;;;;;12.69;71.84;94181.53;5137245;27;20683;-72
2023/04/19 09:05:25;;;;;;;2.55;1.90;;;;;;;13.48;70.61;94184.91;5141965;27;20212;-72
2023/04/19 09:07:53;;;;;;;4.85;2.67;;;;;;;14.12;69.75;94178.03;5144727;27;20205;-73
2023/04/19 09:10:21;;;;;;;3.03;2.10;;;;;;;14.77;66.38;94170.63;5140646;27;20686;-75
2023/04/19 09:13:01;;;;;;;1.58;1.35;;;;;;;14.04;66.73;94168.94;5133862;27;20230;-72
2023/04/19 09:15:37;;;;;;;5.20;2.10;;;;;;;12.85;70.05;94173.38;5130649;27;20240;-76
2023/04/19 09:18:06;;;;;;;3.88;2.28;;;;;;;12.54;71.68;94169.53;5138372;27;20303;-73
2023/04/19 09:20:37;;;;;;;2.78;1.70;;;;;;;13.20;69.91;94176.94;5136862;27;20681;-72
2023/04/19 09:23:06;;;;;;;1.50;1.23;;;;;;;13.30;68.02;94162.75;5142985;27;20293;-73
2023/04/19 09:25:34;;;;;;;2.50;1.13;;;;;;;13.06;68.47;94162.97;5144461;27;20211;-73
2023/04/19 09:28:10;;;;;;;1.83;1.35;;;;;;;13.68;67.89;94161.19;5139168;27;20604;-73
2023/04/19 09:30:37;;;;;;;2.80;1.52;;;;;;;14.17;66.85;94167.63;5143134;27;20192;-73
2023/04/19 09:33:04;;;;;;;6.85;2.15;;;;;;;14.01;67.18;94172.38;5130576;27;20200;-73
2023/04/19 09:35:40;;;;;;;1.30;0.82;;;;;;;13.65;67.68;94172.84;5143917;27;20212;-74
2023/04/19 09:38:08;;;;;;;2.05;1.40;;;;;;;13.62;68.40;94157.22;5141570;27;20223;-74
2023/04/19 09:40:35;;;;;;;1.55;1.23;;;;;;;13.78;66.58;94163.38;5136969;27;20200;-72
2023/04/19 09:43:03;;;;;;;1.98;1.38;;;;;;;13.97;66.99;94160.63;5138717;27;20212;-72
2023/04/19 09:45:40;;;;;;;4.05;2.33;;;;;;;14.41;65.79;94146.66;5143910;27;20266;-73
2023/04/19 09:48:08;;;;;;;3.15;1.83;;;;;;;13.92;66.78;94163.66;5130273;27;20235;-72
2023/04/19 09:50:38;;;;;;;2.75;1.25;;;;;;;14.37;65.69;94154.72;5143879;27;20240;-74
2023/04/19 09:53:06;;;;;;;1.95;1.10;;;;;;;14.10;65.69;94145.69;5144404;27;20223;-74
2023/04/19 09:55:36;;;;;;;1.02;0.93;;;;;;;14.00;66.64;94149.00;5138150;27;20206;-73
2023/04/19 09:58:03;;;;;;;1.38;1.15;;;;;;;13.74;66.52;94146.19;5149112;27;20313;-73
2023/04/19 10:00:30;;;;;;;1.85;1.42;;;;;;;14.22;65.13;94142.78;5130438;28;20216;-74
2023/04/19 10:02:58;;;;;;;1.83;1.33;;;;;;;14.13;64.59;94139.53;5132023;27;20220;-72
2023/04/19 10:05:25;;;;;;;1.73;1.30;;;;;;;14.43;64.53;94130.75;5141838;27;20208;-73
2023/04/19 10:07:54;;;;;;;2.47;1.70;;;;;;;14.45;64.25;94131.16;5144037;27;20307;-73
2023/04/19 10:10:23;;;;;;;1.77;1.40;;;;;;;14.08;65.67;94139.81;5139641;27;20200;-74
2023/04/19 10:12:54;;;;;;;3.60;2.10;;;;;;;13.98;65.96;94137.69;5138406;27;20252;-72
2023/04/19 10:15:23;;;;;;;3.50;1.88;;;;;;;14.13;65.54;94134.09;5151213;27;20200;-73
2023/04/19 10:17:50;;;;;;;2.00;1.58;;;;;;;14.30;63.38;94132.03;5137065;27;20215;-73
2023/04/19 10:20:23;;;;;;;2.28;1.52;;;;;;;14.15;62.93;94128.28;5137487;27;20205;-77
2023/04/19 10:22:50;;;;;;;6.88;1.85;;;;;;;14.08;63.62;94134.38;5131361;27;20204;-73
2023/04/19 10:25:17;;;;;;;1.88;1.58;;;;;;;14.04;62.92;94119.91;5132973;27;20228;-74
2023/04/19 10:27:47;;;;;;;4.32;1.80;;;;;;;15.05;62.37;94117.66;5142700;27;20201;-73
2023/04/19 10:30:20;;;;;;;3.25;1.88;;;;;;;15.06;61.48;94114.56;5137489;27;20206;-73
2023/04/19 10:32:52;;;;;;;1.95;1.60;;;;;;;14.76;61.91;94127.38;5131295;27;20194;-73
2023/04/19 10:35:20;;;;;;;3.55;1.65;;;;;;;14.28;63.93;94112.53;5140758;27;20194;-74
2023/04/19 10:38:05;;;;;;;2.17;1.98;;;;;;;14.67;63.48;94119.44;5133440;27;20204;-73
2023/04/19 10:40:55;;;;;;;2.28;1.95;;;;;;;14.64;63.07;94120.16;5141618;27;20240;-73
2023/04/19 10:43:23;;;;;;;2.20;1.80;;;;;;;14.42;63.01;94112.81;5138546;27;21011;-73
2023/04/19 10:45:51;;;;;;;2.47;1.80;;;;;;;14.55;62.27;94095.13;5138326;27;20282;-74
2023/04/19 10:48:39;;;;;;;1.95;1.65;;;;;;;15.00;62.98;94107.09;5139287;27;20208;-73
2023/04/19 10:51:14;;;;;;;2.38;1.80;;;;;;;15.40;61.32;94096.34;5145874;27;20212;-72
2023/04/19 10:53:45;;;;;;;2.13;1.70;;;;;;;15.26;60.32;94096.16;5143416;27;20185;-74
2023/04/19 10:56:12;;;;;;;2.95;2.17;;;;;;;15.43;60.23;94076.50;5131843;27;20201;-73
2023/04/19 10:59:22;;;;;;;2.90;1.83;;;;;;;14.83;61.64;94094.75;5139857;27;20243;-72
2023/04/19 11:01:57;;;;;;;4.10;2.20;;;;;;;15.39;61.33;94092.03;5138910;27;20859;-72
2023/04/19 11:05:08;;;;;;;2.22;1.80;;;;;;;14.20;62.81;94095.31;5138788;27;20208;-72
2023/04/19 11:07:40;;;;;;;2.83;1.85;;;;;;;14.67;61.92;94094.91;5138428;27;20209;-73
2023/04/19 11:10:08;;;;;;;4.35;2.47;;;;;;;14.79;61.83;94094.69;5143830;27;20204;-74
2023/04/19 11:12:35;;;;;;;4.97;1.42;;;;;;;14.90;60.28;94090.19;5133886;27;20742;-75
2023/04/19 11:15:02;;;;;;;2.28;2.05;;;;;;;14.91;60.51;94080.84;5143737;27;20189;-72
2023/04/19 11:17:31;;;;;;;4.70;2.25;;;;;;;15.27;60.54;94098.50;5146109;27;20256;-73
2023/04/19 11:20:00;;;;;;;2.90;1.98;;;;;;;15.08;59.38;94090.44;5141878;27;20220;-72
2023/04/19 11:22:31;;;;;;;2.38;2.05;;;;;;;15.11;59.65;94088.94;5148441;27;20224;-74
2023/04/19 11:25:05;;;;;;;2.38;1.98;;;;;;;15.53;58.11;94084.03;5152227;27;20208;-74
2023/04/19 11:27:32;;;;;;;4.85;1.75;;;;;;;15.37;57.97;94091.59;5133126;27;20544;-74
2023/04/19 11:30:03;;;;;;;3.33;2.35;;;;;;;15.64;58.67;94063.09;5132089;27;20201;-74
2023/04/19 11:32:31;;;;;;;3.00;2.17;;;;;;;15.61;58.80;94080.22;5145220;27;20201;-73
2023/04/19 11:34:58;;;;;;;4.60;1.98;;;;;;;15.48;57.72;94087.06;5145897;27;20738;-73
2023/04/19 11:37:25;;;;;;;2.72;2.15;;;;;;;15.26;57.78;94090.69;5139728;27;20192;-73
2023/04/19 11:39:52;;;;;;;3.10;2.30;;;;;;;15.31;59.98;94076.72;5140811;27;20228;-73